sensor_id;sensor_type;location;lat;lon;timestamp;P1;durP1;ratioP1;P2;durP2;ratioP2
15273;SDS011;7738;49.532;11.156;2023-04-03T00:00:13;3.38;;;1.30;;
15273;SDS011;7738;49.532;11.156;2023-04-03T00:02:44;1.70;;;1.60;;
15273;SDS011;7738;49.532;11.156;2023-04-03T00:05:14;1.73;;;1.52;;
15273;SDS011;7738;49.532;11.156;2023-04-03T00:07:47;2.80;;;1.67;;
15273;SDS011;7738;49.532;11.156;2023-04-03T00:10:18;3.25;;;1.30;;
15273;SDS011;7738;49.532;11.156;2023-04-03T00:12:48;2.57;;;1.73;;
15273;SDS011;7738;49.532;11.156;2023-04-03T00:15:24;2.85;;;1.35;;
15273;SDS011;7738;49.532;11.156;2023-04-03T00:17:54;1.73;;;1.30;;
15273;SDS011;7738;49.532;11.156;2023-04-03T00:20:25;1.83;;;1.30;;
15273;SDS011;7738;49.532;11.156;2023-04-03T00:22:59;2.40;;;1.80;;
15273;SDS011;7738;49.532;11.156;2023-04-03T00:25:29;2.17;;;1.98;;
15273;SDS011;7738;49.532;11.156;2023-04-03T00:27:59;3.17;;;1.93;;
15273;SDS011;7738;49.532;11.156;2023-04-03T00:30:30;1.80;;;1.70;;
15273;SDS011;7738;49.532;11.156;2023-04-03T00:33:01;1.80;;;1.70;;
15273;SDS011;7738;49.532;11.156;2023-04-03T00:35:31;2.03;;;1.83;;
15273;SDS011;7738;49.532;11.156;2023-04-03T00:38:06;3.23;;;1.50;;
15273;SDS011;7738;49.532;11.156;2023-04-03T00:40:37;2.40;;;1.53;;
15273;SDS011;7738;49.532;11.156;2023-04-03T00:43:11;1.93;;;1.60;;
15273;SDS011;7738;49.532;11.156;2023-04-03T00:45:43;2.20;;;1.53;;
15273;SDS011;7738;49.532;11.156;2023-04-03T00:48:15;2.23;;;2.03;;
15273;SDS011;7738;49.532;11.156;2023-04-03T00:50:49;2.53;;;1.90;;
15273;SDS011;7738;49.532;11.156;2023-04-03T00:53:23;4.40;;;1.43;;
15273;SDS011;7738;49.532;11.156;2023-04-03T00:55:55;2.97;;;1.80;;
15273;SDS011;7738;49.532;11.156;2023-04-03T00:58:28;2.20;;;2.00;;
15273;SDS011;7738;49.532;11.156;2023-04-03T01:01:03;2.57;;;1.60;;
15273;SDS011;7738;49.532;11.156;2023-04-03T01:06:07;2.20;;;1.40;;
15273;SDS011;7738;49.532;11.156;2023-04-03T01:08:40;1.93;;;1.63;;
15273;SDS011;7738;49.532;11.156;2023-04-03T01:11:10;3.10;;;1.80;;
15273;SDS011;7738;49.532;11.156;2023-04-03T01:13:42;2.93;;;2.30;;
15273;SDS011;7738;49.532;11.156;2023-04-03T01:16:12;6.23;;;1.60;;
15273;SDS011;7738;49.532;11.156;2023-04-03T01:18:43;3.17;;;1.30;;
15273;SDS011;7738;49.532;11.156;2023-04-03T01:21:24;2.07;;;1.50;;
15273;SDS011;7738;49.532;11.156;2023-04-03T01:27:10;2.00;;;1.30;;
15273;SDS011;7738;49.532;11.156;2023-04-03T01:32:17;2.73;;;1.73;;
15273;SDS011;7738;49.532;11.156;2023-04-03T01:34:47;2.10;;;1.80;;
15273;SDS011;7738;49.532;11.156;2023-04-03T01:37:17;2.30;;;1.83;;
15273;SDS011;7738;49.532;11.156;2023-04-03T01:39:48;3.07;;;1.40;;
15273;SDS011;7738;49.532;11.156;2023-04-03T01:42:18;2.97;;;2.17;;
15273;SDS011;7738;49.532;11.156;2023-04-03T01:44:48;3.57;;;1.60;;
15273;SDS011;7738;49.532;11.156;2023-04-03T01:47:22;6.37;;;1.90;;
15273;SDS011;7738;49.532;11.156;2023-04-03T01:49:52;1.70;;;1.60;;
15273;SDS011;7738;49.532;11.156;2023-04-03T01:52:23;1.63;;;1.40;;
15273;SDS011;7738;49.532;11.156;2023-04-03T01:54:53;1.60;;;1.50;;
15273;SDS011;7738;49.532;11.156;2023-04-03T01:57:24;1.70;;;1.60;;
15273;SDS011;7738;49.532;11.156;2023-04-03T01:59:54;2.40;;;1.60;;
15273;SDS011;7738;49.532;11.156;2023-04-03T02:02:27;1.70;;;1.60;;
15273;SDS011;7738;49.532;11.156;2023-04-03T02:04:57;2.00;;;1.73;;
15273;SDS011;7738;49.532;11.156;2023-04-03T02:07:27;2.50;;;1.50;;
15273;SDS011;7738;49.532;11.156;2023-04-03T02:09:58;3.57;;;1.50;;
15273;SDS011;7738;49.532;11.156;2023-04-03T02:12:28;4.83;;;1.73;;
15273;SDS011;7738;49.532;11.156;2023-04-03T02:14:58;2.20;;;1.73;;
15273;SDS011;7738;49.532;11.156;2023-04-03T02:17:31;2.33;;;1.73;;
15273;SDS011;7738;49.532;11.156;2023-04-03T02:20:02;2.90;;;1.33;;
15273;SDS011;7738;49.532;11.156;2023-04-03T02:22:33;1.73;;;1.53;;
15273;SDS011;7738;49.532;11.156;2023-04-03T02:25:03;2.77;;;1.60;;
15273;SDS011;7738;49.532;11.156;2023-04-03T02:27:34;2.07;;;1.80;;
15273;SDS011;7738;49.532;11.156;2023-04-03T02:30:05;3.77;;;1.30;;
15273;SDS011;7738;49.532;11.156;2023-04-03T02:32:40;1.67;;;1.33;;
15273;SDS011;7738;49.532;11.156;2023-04-03T02:35:10;4.67;;;1.60;;
15273;SDS011;7738;49.532;11.156;2023-04-03T02:37:42;2.60;;;1.70;;
15273;SDS011;7738;49.532;11.156;2023-04-03T02:40:12;4.07;;;1.50;;
15273;SDS011;7738;49.532;11.156;2023-04-03T02:42:43;3.97;;;2.17;;
15273;SDS011;7738;49.532;11.156;2023-04-03T02:45:13;6.47;;;1.97;;
15273;SDS011;7738;49.532;11.156;2023-04-03T02:47:47;5.47;;;2.57;;
15273;SDS011;7738;49.532;11.156;2023-04-03T02:50:17;2.97;;;1.83;;
15273;SDS011;7738;49.532;11.156;2023-04-03T02:52:47;4.07;;;1.77;;
15273;SDS011;7738;49.532;11.156;2023-04-03T02:55:18;2.83;;;1.93;;
15273;SDS011;7738;49.532;11.156;2023-04-03T02:57:51;2.93;;;2.20;;
15273;SDS011;7738;49.532;11.156;2023-04-03T03:00:21;3.67;;;2.03;;
15273;SDS011;7738;49.532;11.156;2023-04-03T03:02:54;2.30;;;1.90;;
15273;SDS011;7738;49.532;11.156;2023-04-03T03:05:24;2.73;;;2.43;;
15273;SDS011;7738;49.532;11.156;2023-04-03T03:07:54;4.43;;;2.07;;
15273;SDS011;7738;49.532;11.156;2023-04-03T03:10:25;4.20;;;2.47;;
15273;SDS011;7738;49.532;11.156;2023-04-03T03:12:55;3.03;;;2.27;;
15273;SDS011;7738;49.532;11.156;2023-04-03T03:15:25;2.40;;;1.73;;
15273;SDS011;7738;49.532;11.156;2023-04-03T03:17:58;8.07;;;2.67;;
15273;SDS011;7738;49.532;11.156;2023-04-03T03:20:28;3.03;;;2.73;;
15273;SDS011;7738;49.532;11.156;2023-04-03T03:22:59;1.87;;;1.73;;
15273;SDS011;7738;49.532;11.156;2023-04-03T03:25:29;11.13;;;2.70;;
15273;SDS011;7738;49.532;11.156;2023-04-03T03:28:00;2.47;;;2.00;;
15273;SDS011;7738;49.532;11.156;2023-04-03T03:30:30;5.37;;;2.10;;
15273;SDS011;7738;49.532;11.156;2023-04-03T03:33:03;5.73;;;2.70;;
15273;SDS011;7738;49.532;11.156;2023-04-03T03:35:33;2.67;;;2.40;;
15273;SDS011;7738;49.532;11.156;2023-04-03T03:38:04;2.63;;;2.13;;
15273;SDS011;7738;49.532;11.156;2023-04-03T03:40:35;3.23;;;2.40;;
15273;SDS011;7738;49.532;11.156;2023-04-03T03:43:06;3.13;;;2.37;;
15273;SDS011;7738;49.532;11.156;2023-04-03T03:45:36;4.43;;;2.37;;
15273;SDS011;7738;49.532;11.156;2023-04-03T03:48:09;3.20;;;2.90;;
15273;SDS011;7738;49.532;11.156;2023-04-03T03:50:39;3.87;;;2.80;;
15273;SDS011;7738;49.532;11.156;2023-04-03T03:53:10;2.53;;;2.33;;
15273;SDS011;7738;49.532;11.156;2023-04-03T03:55:42;5.13;;;2.20;;
15273;SDS011;7738;49.532;11.156;2023-04-03T03:58:12;5.40;;;2.67;;
15273;SDS011;7738;49.532;11.156;2023-04-03T04:00:43;4.17;;;3.20;;
15273;SDS011;7738;49.532;11.156;2023-04-03T04:03:16;3.93;;;2.60;;
15273;SDS011;7738;49.532;11.156;2023-04-03T04:08:17;7.07;;;2.70;;
15273;SDS011;7738;49.532;11.156;2023-04-03T04:10:48;4.80;;;2.70;;
15273;SDS011;7738;49.532;11.156;2023-04-03T04:13:18;4.10;;;2.30;;
15273;SDS011;7738;49.532;11.156;2023-04-03T04:15:49;4.73;;;2.97;;
15273;SDS011;7738;49.532;11.156;2023-04-03T04:18:22;5.10;;;2.77;;
15273;SDS011;7738;49.532;11.156;2023-04-03T04:20:52;5.43;;;3.27;;
15273;SDS011;7738;49.532;11.156;2023-04-03T04:23:22;6.50;;;2.80;;
15273;SDS011;7738;49.532;11.156;2023-04-03T04:25:53;7.67;;;2.83;;
15273;SDS011;7738;49.532;11.156;2023-04-03T04:28:24;4.53;;;2.93;;
15273;SDS011;7738;49.532;11.156;2023-04-03T04:30:56;4.30;;;3.10;;
15273;SDS011;7738;49.532;11.156;2023-04-03T04:33:30;3.03;;;2.70;;
15273;SDS011;7738;49.532;11.156;2023-04-03T04:36:02;4.47;;;3.03;;
15273;SDS011;7738;49.532;11.156;2023-04-03T04:38:33;7.03;;;3.20;;
15273;SDS011;7738;49.532;11.156;2023-04-03T04:41:05;6.03;;;3.50;;
15273;SDS011;7738;49.532;11.156;2023-04-03T04:43:36;3.33;;;2.93;;
15273;SDS011;7738;49.532;11.156;2023-04-03T04:46:09;3.83;;;3.10;;
15273;SDS011;7738;49.532;11.156;2023-04-03T04:48:48;2.80;;;2.53;;
15273;SDS011;7738;49.532;11.156;2023-04-03T04:51:20;5.55;;;3.17;;
15273;SDS011;7738;49.532;11.156;2023-04-03T04:53:50;5.37;;;3.03;;
15273;SDS011;7738;49.532;11.156;2023-04-03T04:56:22;4.67;;;3.20;;
15273;SDS011;7738;49.532;11.156;2023-04-03T04:58:55;4.47;;;2.70;;
15273;SDS011;7738;49.532;11.156;2023-04-03T05:01:26;5.80;;;2.80;;
15273;SDS011;7738;49.532;11.156;2023-04-03T05:04:05;7.00;;;3.60;;
15273;SDS011;7738;49.532;11.156;2023-04-03T05:06:35;5.43;;;3.30;;
15273;SDS011;7738;49.532;11.156;2023-04-03T05:09:10;3.87;;;2.73;;
15273;SDS011;7738;49.532;11.156;2023-04-03T05:11:43;4.23;;;2.80;;
15273;SDS011;7738;49.532;11.156;2023-04-03T05:14:15;7.83;;;3.17;;
15273;SDS011;7738;49.532;11.156;2023-04-03T05:16:45;5.40;;;2.90;;
15273;SDS011;7738;49.532;11.156;2023-04-03T05:19:24;2.97;;;2.67;;
15273;SDS011;7738;49.532;11.156;2023-04-03T05:21:55;3.80;;;3.40;;
15273;SDS011;7738;49.532;11.156;2023-04-03T05:24:27;4.23;;;2.93;;
15273;SDS011;7738;49.532;11.156;2023-04-03T05:26:58;8.80;;;2.87;;
15273;SDS011;7738;49.532;11.156;2023-04-03T05:29:31;3.27;;;2.50;;
15273;SDS011;7738;49.532;11.156;2023-04-03T05:32:03;7.97;;;3.10;;
15273;SDS011;7738;49.532;11.156;2023-04-03T05:34:36;3.43;;;2.90;;
15273;SDS011;7738;49.532;11.156;2023-04-03T05:37:06;5.27;;;3.00;;
15273;SDS011;7738;49.532;11.156;2023-04-03T05:39:37;4.40;;;2.70;;
15273;SDS011;7738;49.532;11.156;2023-04-03T05:42:09;4.70;;;2.53;;
15273;SDS011;7738;49.532;11.156;2023-04-03T05:44:41;4.33;;;2.93;;
15273;SDS011;7738;49.532;11.156;2023-04-03T05:47:14;2.60;;;2.40;;
15273;SDS011;7738;49.532;11.156;2023-04-03T05:49:47;5.27;;;2.60;;
15273;SDS011;7738;49.532;11.156;2023-04-03T05:52:20;7.80;;;2.75;;
15273;SDS011;7738;49.532;11.156;2023-04-03T05:54:53;4.72;;;3.15;;
15273;SDS011;7738;49.532;11.156;2023-04-03T05:57:29;5.00;;;2.77;;
15273;SDS011;7738;49.532;11.156;2023-04-03T06:00:00;2.80;;;2.30;;
15273;SDS011;7738;49.532;11.156;2023-04-03T06:02:39;4.77;;;2.70;;
15273;SDS011;7738;49.532;11.156;2023-04-03T06:05:19;5.67;;;2.77;;
15273;SDS011;7738;49.532;11.156;2023-04-03T06:07:49;7.83;;;3.33;;
15273;SDS011;7738;49.532;11.156;2023-04-03T06:10:20;11.23;;;4.23;;
15273;SDS011;7738;49.532;11.156;2023-04-03T06:12:50;5.17;;;3.10;;
15273;SDS011;7738;49.532;11.156;2023-04-03T06:15:22;8.30;;;3.17;;
15273;SDS011;7738;49.532;11.156;2023-04-03T06:17:52;4.23;;;3.83;;
15273;SDS011;7738;49.532;11.156;2023-04-03T06:20:25;5.50;;;3.50;;
15273;SDS011;7738;49.532;11.156;2023-04-03T06:22:56;7.23;;;3.17;;
15273;SDS011;7738;49.532;11.156;2023-04-03T06:25:27;6.37;;;3.43;;
15273;SDS011;7738;49.532;11.156;2023-04-03T06:27:58;4.43;;;3.33;;
15273;SDS011;7738;49.532;11.156;2023-04-03T06:30:28;3.40;;;2.60;;
15273;SDS011;7738;49.532;11.156;2023-04-03T06:32:59;4.87;;;3.23;;
15273;SDS011;7738;49.532;11.156;2023-04-03T06:35:31;7.53;;;3.40;;
15273;SDS011;7738;49.532;11.156;2023-04-03T06:38:02;7.43;;;3.53;;
15273;SDS011;7738;49.532;11.156;2023-04-03T06:40:36;4.85;;;3.25;;
15273;SDS011;7738;49.532;11.156;2023-04-03T06:43:06;8.10;;;4.43;;
15273;SDS011;7738;49.532;11.156;2023-04-03T06:45:36;8.77;;;3.27;;
15273;SDS011;7738;49.532;11.156;2023-04-03T06:48:07;7.00;;;3.87;;
15273;SDS011;7738;49.532;11.156;2023-04-03T06:50:40;7.07;;;4.80;;
15273;SDS011;7738;49.532;11.156;2023-04-03T06:53:11;4.70;;;3.70;;
15273;SDS011;7738;49.532;11.156;2023-04-03T06:55:41;8.50;;;4.00;;
15273;SDS011;7738;49.532;11.156;2023-04-03T06:58:11;6.17;;;4.03;;
15273;SDS011;7738;49.532;11.156;2023-04-03T07:00:45;5.18;;;4.68;;
15273;SDS011;7738;49.532;11.156;2023-04-03T07:03:16;4.67;;;4.03;;
15273;SDS011;7738;49.532;11.156;2023-04-03T07:05:49;4.47;;;4.03;;
15273;SDS011;7738;49.532;11.156;2023-04-03T07:08:19;4.40;;;3.67;;
15273;SDS011;7738;49.532;11.156;2023-04-03T07:10:50;8.27;;;4.13;;
15273;SDS011;7738;49.532;11.156;2023-04-03T07:13:20;6.20;;;3.30;;
15273;SDS011;7738;49.532;11.156;2023-04-03T07:15:51;5.40;;;3.83;;
15273;SDS011;7738;49.532;11.156;2023-04-03T07:18:21;4.47;;;2.57;;
15273;SDS011;7738;49.532;11.156;2023-04-03T07:20:55;7.40;;;3.57;;
15273;SDS011;7738;49.532;11.156;2023-04-03T07:23:25;7.83;;;2.87;;
15273;SDS011;7738;49.532;11.156;2023-04-03T07:25:55;3.97;;;2.70;;
15273;SDS011;7738;49.532;11.156;2023-04-03T07:28:26;4.53;;;3.57;;
15273;SDS011;7738;49.532;11.156;2023-04-03T07:30:59;3.50;;;2.90;;
15273;SDS011;7738;49.532;11.156;2023-04-03T07:36:04;3.10;;;2.47;;
15273;SDS011;7738;49.532;11.156;2023-04-03T07:38:36;3.75;;;2.30;;
15273;SDS011;7738;49.532;11.156;2023-04-03T07:41:07;6.32;;;3.25;;
15273;SDS011;7738;49.532;11.156;2023-04-03T07:43:44;6.73;;;3.57;;
15273;SDS011;7738;49.532;11.156;2023-04-03T07:46:16;4.05;;;2.70;;
15273;SDS011;7738;49.532;11.156;2023-04-03T07:48:47;7.50;;;3.30;;
15273;SDS011;7738;49.532;11.156;2023-04-03T07:51:20;4.78;;;3.03;;
15273;SDS011;7738;49.532;11.156;2023-04-03T07:53:51;5.47;;;3.27;;
15273;SDS011;7738;49.532;11.156;2023-04-03T07:56:21;5.83;;;3.00;;
15273;SDS011;7738;49.532;11.156;2023-04-03T07:58:52;5.53;;;2.67;;
15273;SDS011;7738;49.532;11.156;2023-04-03T08:01:22;2.78;;;2.03;;
15273;SDS011;7738;49.532;11.156;2023-04-03T08:03:52;19.58;;;8.15;;
15273;SDS011;7738;49.532;11.156;2023-04-03T08:06:26;26.05;;;9.35;;
15273;SDS011;7738;49.532;11.156;2023-04-03T08:09:11;5.37;;;3.50;;
15273;SDS011;7738;49.532;11.156;2023-04-03T08:11:42;3.70;;;2.72;;
15273;SDS011;7738;49.532;11.156;2023-04-03T08:14:12;3.88;;;2.53;;
15273;SDS011;7738;49.532;11.156;2023-04-03T08:16:45;6.22;;;3.25;;
15273;SDS011;7738;49.532;11.156;2023-04-03T08:19:16;4.55;;;2.15;;
15273;SDS011;7738;49.532;11.156;2023-04-03T08:21:52;2.30;;;1.67;;
15273;SDS011;7738;49.532;11.156;2023-04-03T08:24:23;5.28;;;2.13;;
15273;SDS011;7738;49.532;11.156;2023-04-03T08:26:53;3.40;;;2.00;;
15273;SDS011;7738;49.532;11.156;2023-04-03T08:29:24;1.75;;;1.52;;
15273;SDS011;7738;49.532;11.156;2023-04-03T08:31:54;3.50;;;1.75;;
15273;SDS011;7738;49.532;11.156;2023-04-03T08:34:25;3.78;;;1.98;;
15273;SDS011;7738;49.532;11.156;2023-04-03T08:36:58;2.78;;;1.63;;
15273;SDS011;7738;49.532;11.156;2023-04-03T08:39:28;3.45;;;1.83;;
15273;SDS011;7738;49.532;11.156;2023-04-03T08:41:58;2.20;;;1.83;;
15273;SDS011;7738;49.532;11.156;2023-04-03T08:44:36;4.50;;;1.52;;
15273;SDS011;7738;49.532;11.156;2023-04-03T08:47:11;5.75;;;2.10;;
15273;SDS011;7738;49.532;11.156;2023-04-03T08:49:52;2.78;;;2.30;;
15273;SDS011;7738;49.532;11.156;2023-04-03T08:52:28;3.80;;;1.58;;
15273;SDS011;7738;49.532;11.156;2023-04-03T08:55:06;3.88;;;2.17;;
15273;SDS011;7738;49.532;11.156;2023-04-03T08:57:44;4.20;;;1.85;;
15273;SDS011;7738;49.532;11.156;2023-04-03T09:00:17;9.23;;;1.70;;
15273;SDS011;7738;49.532;11.156;2023-04-03T09:02:49;3.33;;;1.60;;
15273;SDS011;7738;49.532;11.156;2023-04-03T09:05:32;1.77;;;1.23;;
15273;SDS011;7738;49.532;11.156;2023-04-03T09:08:16;1.98;;;1.35;;
15273;SDS011;7738;49.532;11.156;2023-04-03T09:10:55;3.35;;;2.55;;
15273;SDS011;7738;49.532;11.156;2023-04-03T09:13:35;2.13;;;1.35;;
15273;SDS011;7738;49.532;11.156;2023-04-03T09:16:18;3.35;;;1.83;;
15273;SDS011;7738;49.532;11.156;2023-04-03T09:18:57;1.55;;;1.13;;
15273;SDS011;7738;49.532;11.156;2023-04-03T09:21:36;4.90;;;1.40;;
15273;SDS011;7738;49.532;11.156;2023-04-03T09:24:12;5.07;;;1.50;;
15273;SDS011;7738;49.532;11.156;2023-04-03T09:26:45;2.75;;;1.73;;
15273;SDS011;7738;49.532;11.156;2023-04-03T09:29:21;4.18;;;1.48;;
15273;SDS011;7738;49.532;11.156;2023-04-03T09:31:56;3.15;;;1.42;;
15273;SDS011;7738;49.532;11.156;2023-04-03T09:34:29;3.10;;;1.63;;
15273;SDS011;7738;49.532;11.156;2023-04-03T09:37:03;2.90;;;1.20;;
15273;SDS011;7738;49.532;11.156;2023-04-03T09:42:24;2.35;;;1.35;;
15273;SDS011;7738;49.532;11.156;2023-04-03T09:44:55;1.45;;;0.85;;
15273;SDS011;7738;49.532;11.156;2023-04-03T09:47:26;2.25;;;0.82;;
15273;SDS011;7738;49.532;11.156;2023-04-03T09:52:48;3.00;;;1.80;;
15273;SDS011;7738;49.532;11.156;2023-04-03T09:55:22;2.60;;;1.15;;
15273;SDS011;7738;49.532;11.156;2023-04-03T09:57:57;3.35;;;1.20;;
15273;SDS011;7738;49.532;11.156;2023-04-03T10:00:30;1.73;;;1.02;;
15273;SDS011;7738;49.532;11.156;2023-04-03T10:03:03;3.20;;;1.25;;
15273;SDS011;7738;49.532;11.156;2023-04-03T10:05:36;5.00;;;1.88;;
15273;SDS011;7738;49.532;11.156;2023-04-03T10:08:09;2.15;;;0.85;;
15273;SDS011;7738;49.532;11.156;2023-04-03T10:13:50;3.28;;;1.20;;
15273;SDS011;7738;49.532;11.156;2023-04-03T10:16:27;2.10;;;0.90;;
15273;SDS011;7738;49.532;11.156;2023-04-03T10:19:14;2.33;;;1.00;;
15273;SDS011;7738;49.532;11.156;2023-04-03T10:22:02;4.53;;;0.90;;
15273;SDS011;7738;49.532;11.156;2023-04-03T10:24:44;5.10;;;1.95;;
15273;SDS011;7738;49.532;11.156;2023-04-03T10:27:26;3.28;;;1.02;;
15273;SDS011;7738;49.532;11.156;2023-04-03T10:30:14;2.42;;;1.30;;
15273;SDS011;7738;49.532;11.156;2023-04-03T10:33:02;3.55;;;1.38;;
15273;SDS011;7738;49.532;11.156;2023-04-03T10:35:42;1.73;;;1.00;;
15273;SDS011;7738;49.532;11.156;2023-04-03T10:38:19;3.05;;;1.20;;
15273;SDS011;7738;49.532;11.156;2023-04-03T10:40:55;3.15;;;1.23;;
15273;SDS011;7738;49.532;11.156;2023-04-03T10:43:36;3.65;;;2.08;;
15273;SDS011;7738;49.532;11.156;2023-04-03T10:46:14;1.60;;;1.25;;
15273;SDS011;7738;49.532;11.156;2023-04-03T10:48:53;1.77;;;1.33;;
15273;SDS011;7738;49.532;11.156;2023-04-03T10:51:34;3.33;;;0.95;;
15273;SDS011;7738;49.532;11.156;2023-04-03T10:54:11;2.30;;;1.00;;
15273;SDS011;7738;49.532;11.156;2023-04-03T10:56:47;1.63;;;0.93;;
15273;SDS011;7738;49.532;11.156;2023-04-03T10:59:38;3.05;;;1.27;;
15273;SDS011;7738;49.532;11.156;2023-04-03T11:02:14;1.20;;;0.82;;
15273;SDS011;7738;49.532;11.156;2023-04-03T11:04:53;1.85;;;0.82;;
15273;SDS011;7738;49.532;11.156;2023-04-03T11:07:29;1.88;;;0.93;;
15273;SDS011;7738;49.532;11.156;2023-04-03T11:10:09;2.22;;;1.02;;
15273;SDS011;7738;49.532;11.156;2023-04-03T11:12:46;2.55;;;0.80;;
15273;SDS011;7738;49.532;11.156;2023-04-03T11:15:23;3.88;;;1.65;;
15273;SDS011;7738;49.532;11.156;2023-04-03T11:17:54;2.50;;;1.05;;
15273;SDS011;7738;49.532;11.156;2023-04-03T11:20:29;1.77;;;1.02;;
15273;SDS011;7738;49.532;11.156;2023-04-03T11:23:02;3.67;;;1.15;;
15273;SDS011;7738;49.532;11.156;2023-04-03T11:25:36;1.90;;;1.42;;
15273;SDS011;7738;49.532;11.156;2023-04-03T11:28:11;1.80;;;1.05;;
15273;SDS011;7738;49.532;11.156;2023-04-03T11:30:46;2.20;;;1.23;;
15273;SDS011;7738;49.532;11.156;2023-04-03T11:33:24;1.17;;;0.85;;
15273;SDS011;7738;49.532;11.156;2023-04-03T11:36:03;2.50;;;1.55;;
15273;SDS011;7738;49.532;11.156;2023-04-03T11:38:54;2.17;;;1.27;;
15273;SDS011;7738;49.532;11.156;2023-04-03T11:41:27;3.55;;;1.58;;
15273;SDS011;7738;49.532;11.156;2023-04-03T11:43:59;5.35;;;1.40;;
15273;SDS011;7738;49.532;11.156;2023-04-03T11:58:33;2.05;;;0.93;;
15273;SDS011;7738;49.532;11.156;2023-04-03T12:01:08;1.75;;;1.10;;
15273;SDS011;7738;49.532;11.156;2023-04-03T12:12:38;1.80;;;0.80;;
15273;SDS011;7738;49.532;11.156;2023-04-03T12:21:04;3.05;;;1.00;;
15273;SDS011;7738;49.532;11.156;2023-04-03T12:23:35;2.10;;;1.38;;
15273;SDS011;7738;49.532;11.156;2023-04-03T12:26:25;1.92;;;1.20;;
15273;SDS011;7738;49.532;11.156;2023-04-03T12:29:18;1.48;;;0.93;;
15273;SDS011;7738;49.532;11.156;2023-04-03T12:31:58;2.13;;;0.90;;
15273;SDS011;7738;49.532;11.156;2023-04-03T12:37:43;2.15;;;0.75;;
15273;SDS011;7738;49.532;11.156;2023-04-03T12:40:25;1.42;;;0.82;;
15273;SDS011;7738;49.532;11.156;2023-04-03T12:43:02;1.15;;;0.80;;
15273;SDS011;7738;49.532;11.156;2023-04-03T12:45:44;1.98;;;0.63;;
15273;SDS011;7738;49.532;11.156;2023-04-03T12:48:20;2.10;;;1.15;;
15273;SDS011;7738;49.532;11.156;2023-04-03T12:50:55;2.78;;;1.20;;
15273;SDS011;7738;49.532;11.156;2023-04-03T12:53:31;1.42;;;0.93;;
15273;SDS011;7738;49.532;11.156;2023-04-03T12:58:56;2.58;;;0.88;;
15273;SDS011;7738;49.532;11.156;2023-04-03T13:01:42;2.72;;;1.40;;
15273;SDS011;7738;49.532;11.156;2023-04-03T13:04:12;2.28;;;0.73;;
15273;SDS011;7738;49.532;11.156;2023-04-03T13:06:43;1.85;;;0.90;;
15273;SDS011;7738;49.532;11.156;2023-04-03T13:09:22;2.95;;;1.13;;
15273;SDS011;7738;49.532;11.156;2023-04-03T13:11:55;3.28;;;1.00;;
15273;SDS011;7738;49.532;11.156;2023-04-03T13:14:29;1.90;;;0.90;;
15273;SDS011;7738;49.532;11.156;2023-04-03T13:17:02;2.40;;;0.70;;
15273;SDS011;7738;49.532;11.156;2023-04-03T13:19:35;3.13;;;1.25;;
15273;SDS011;7738;49.532;11.156;2023-04-03T13:22:07;1.42;;;0.77;;
15273;SDS011;7738;49.532;11.156;2023-04-03T13:24:49;1.58;;;0.90;;
15273;SDS011;7738;49.532;11.156;2023-04-03T13:27:21;2.17;;;0.93;;
15273;SDS011;7738;49.532;11.156;2023-04-03T13:29:52;1.95;;;0.70;;
15273;SDS011;7738;49.532;11.156;2023-04-03T13:32:26;1.83;;;0.90;;
15273;SDS011;7738;49.532;11.156;2023-04-03T13:35:00;2.45;;;1.20;;
15273;SDS011;7738;49.532;11.156;2023-04-03T13:37:53;4.70;;;0.85;;
15273;SDS011;7738;49.532;11.156;2023-04-03T13:40:27;2.45;;;0.93;;
15273;SDS011;7738;49.532;11.156;2023-04-03T13:43:16;3.03;;;1.02;;
15273;SDS011;7738;49.532;11.156;2023-04-03T13:45:56;1.63;;;0.77;;
15273;SDS011;7738;49.532;11.156;2023-04-03T13:48:36;1.73;;;0.70;;
15273;SDS011;7738;49.532;11.156;2023-04-03T13:51:17;2.30;;;0.82;;
15273;SDS011;7738;49.532;11.156;2023-04-03T13:53:51;2.28;;;1.05;;
15273;SDS011;7738;49.532;11.156;2023-04-03T13:56:27;1.38;;;0.90;;
15273;SDS011;7738;49.532;11.156;2023-04-03T13:59:03;2.05;;;0.90;;
15273;SDS011;7738;49.532;11.156;2023-04-03T14:01:51;1.88;;;0.93;;
15273;SDS011;7738;49.532;11.156;2023-04-03T14:04:24;2.38;;;0.82;;
15273;SDS011;7738;49.532;11.156;2023-04-03T14:06:56;1.33;;;0.82;;
15273;SDS011;7738;49.532;11.156;2023-04-03T14:09:27;3.03;;;1.27;;
15273;SDS011;7738;49.532;11.156;2023-04-03T14:12:02;2.08;;;0.60;;
15273;SDS011;7738;49.532;11.156;2023-04-03T14:14:43;2.45;;;1.00;;
15273;SDS011;7738;49.532;11.156;2023-04-03T14:17:15;5.35;;;0.98;;
15273;SDS011;7738;49.532;11.156;2023-04-03T14:19:51;5.07;;;0.60;;
15273;SDS011;7738;49.532;11.156;2023-04-03T14:22:22;4.22;;;0.60;;
15273;SDS011;7738;49.532;11.156;2023-04-03T14:24:55;1.52;;;0.75;;
15273;SDS011;7738;49.532;11.156;2023-04-03T14:27:28;3.63;;;1.20;;
15273;SDS011;7738;49.532;11.156;2023-04-03T14:30:02;1.60;;;0.93;;
15273;SDS011;7738;49.532;11.156;2023-04-03T14:32:37;1.45;;;0.77;;
15273;SDS011;7738;49.532;11.156;2023-04-03T14:35:08;2.90;;;0.68;;
15273;SDS011;7738;49.532;11.156;2023-04-03T14:37:38;1.85;;;0.90;;
15273;SDS011;7738;49.532;11.156;2023-04-03T14:40:11;1.38;;;0.60;;
15273;SDS011;7738;49.532;11.156;2023-04-03T14:42:46;1.23;;;0.63;;
15273;SDS011;7738;49.532;11.156;2023-04-03T14:45:17;0.97;;;0.60;;
15273;SDS011;7738;49.532;11.156;2023-04-03T14:47:48;3.33;;;0.85;;
15273;SDS011;7738;49.532;11.156;2023-04-03T14:50:21;4.43;;;1.10;;
15273;SDS011;7738;49.532;11.156;2023-04-03T14:52:55;1.67;;;0.88;;
15273;SDS011;7738;49.532;11.156;2023-04-03T14:55:27;4.38;;;0.85;;
15273;SDS011;7738;49.532;11.156;2023-04-03T14:58:00;2.92;;;0.80;;
15273;SDS011;7738;49.532;11.156;2023-04-03T15:00:31;3.17;;;0.80;;
15273;SDS011;7738;49.532;11.156;2023-04-03T15:03:01;1.33;;;0.80;;
15273;SDS011;7738;49.532;11.156;2023-04-03T15:05:32;2.80;;;0.65;;
15273;SDS011;7738;49.532;11.156;2023-04-03T15:08:03;1.35;;;0.60;;
15273;SDS011;7738;49.532;11.156;2023-04-03T15:10:34;1.52;;;0.80;;
15273;SDS011;7738;49.532;11.156;2023-04-03T15:13:07;1.20;;;0.88;;
15273;SDS011;7738;49.532;11.156;2023-04-03T15:15:40;4.82;;;1.25;;
15273;SDS011;7738;49.532;11.156;2023-04-03T15:18:14;3.58;;;1.48;;
15273;SDS011;7738;49.532;11.156;2023-04-03T15:20:46;2.75;;;1.10;;
15273;SDS011;7738;49.532;11.156;2023-04-03T15:23:17;4.18;;;1.10;;
15273;SDS011;7738;49.532;11.156;2023-04-03T15:25:52;6.47;;;3.75;;
15273;SDS011;7738;49.532;11.156;2023-04-03T15:28:27;4.93;;;3.50;;
15273;SDS011;7738;49.532;11.156;2023-04-03T15:30:59;6.82;;;4.95;;
15273;SDS011;7738;49.532;11.156;2023-04-03T15:33:30;2.38;;;1.80;;
15273;SDS011;7738;49.532;11.156;2023-04-03T15:36:01;2.95;;;2.55;;
15273;SDS011;7738;49.532;11.156;2023-04-03T15:38:42;5.10;;;2.17;;
15273;SDS011;7738;49.532;11.156;2023-04-03T15:41:13;4.95;;;2.20;;
15273;SDS011;7738;49.532;11.156;2023-04-03T15:43:46;2.97;;;1.05;;
15273;SDS011;7738;49.532;11.156;2023-04-03T15:46:16;2.05;;;1.10;;
15273;SDS011;7738;49.532;11.156;2023-04-03T15:48:46;2.72;;;1.10;;
15273;SDS011;7738;49.532;11.156;2023-04-03T15:51:16;4.75;;;1.20;;
15273;SDS011;7738;49.532;11.156;2023-04-03T15:53:47;2.83;;;1.27;;
15273;SDS011;7738;49.532;11.156;2023-04-03T15:56:17;2.53;;;0.90;;
15273;SDS011;7738;49.532;11.156;2023-04-03T15:58:50;2.45;;;1.20;;
15273;SDS011;7738;49.532;11.156;2023-04-03T16:01:20;5.80;;;1.80;;
15273;SDS011;7738;49.532;11.156;2023-04-03T16:03:51;1.15;;;0.75;;
15273;SDS011;7738;49.532;11.156;2023-04-03T16:06:21;4.07;;;1.67;;
15273;SDS011;7738;49.532;11.156;2023-04-03T16:11:26;4.70;;;2.00;;
15273;SDS011;7738;49.532;11.156;2023-04-03T16:13:59;4.05;;;1.65;;
15273;SDS011;7738;49.532;11.156;2023-04-03T16:16:29;3.50;;;1.35;;
15273;SDS011;7738;49.532;11.156;2023-04-03T16:18:59;4.07;;;1.33;;
15273;SDS011;7738;49.532;11.156;2023-04-03T16:21:30;1.10;;;0.73;;